createdAt,value
2023-04-19T00:01:16.110Z,5.00
2023-04-19T00:03:52.466Z,3.80
2023-04-19T00:07:32.868Z,4.32
2023-04-19T00:10:21.953Z,2.67
2023-04-19T00:12:53.619Z,3.70
2023-04-19T00:15:22.967Z,3.17
2023-04-19T00:17:52.820Z,2.90
2023-04-19T00:24:40.942Z,3.00
2023-04-19T00:27:11.503Z,2.22
2023-04-19T00:29:41.592Z,3.15
2023-04-19T00:32:56.271Z,2.92
2023-04-19T00:42:36.740Z,2.83
2023-04-19T00:49:45.345Z,4.50
2023-04-19T00:52:15.137Z,3.83
2023-04-19T00:54:44.765Z,3.78
2023-04-19T00:57:17.556Z,2.97
2023-04-19T01:00:27.875Z,2.92
2023-04-19T01:02:58.420Z,3.33
2023-04-19T01:05:50.072Z,3.08
2023-04-19T01:11:25.115Z,3.67
2023-04-19T01:14:04.079Z,3.63
2023-04-19T01:16:33.856Z,2.80
2023-04-19T01:19:05.321Z,3.30
2023-04-19T01:21:34.421Z,3.25
2023-04-19T01:24:04.852Z,3.63
2023-04-19T01:26:34.095Z,3.13
2023-04-19T01:29:05.527Z,2.40
2023-04-19T01:31:34.749Z,3.25
2023-04-19T01:34:11.948Z,2.97
2023-04-19T01:40:46.104Z,3.60
2023-04-19T01:44:28.018Z,4.05
2023-04-19T01:48:04.451Z,3.53
2023-04-19T01:51:03.333Z,4.15
2023-04-19T01:54:11.159Z,2.55
2023-04-19T01:57:27.841Z,3.42
2023-04-19T02:00:15.407Z,3.08
2023-04-19T02:03:35.974Z,2.85
2023-04-19T02:06:48.910Z,3.83
2023-04-19T02:13:06.973Z,2.70
2023-04-19T02:19:32.709Z,3.47
2023-04-19T02:36:13.400Z,2.85
2023-04-19T02:54:12.674Z,3.00
2023-04-19T03:01:41.721Z,2.90
2023-04-19T03:08:02.639Z,2.88
2023-04-19T03:11:23.342Z,2.70
2023-04-19T03:14:28.112Z,3.10
2023-04-19T03:29:19.985Z,2.72
2023-04-19T03:32:36.805Z,3.03
2023-04-19T03:42:58.233Z,3.35
2023-04-19T03:45:49.170Z,3.28
2023-04-19T04:07:00.586Z,2.88
2023-04-19T04:10:31.759Z,3.53
2023-04-19T04:17:21.326Z,2.55
2023-04-19T04:21:08.458Z,2.90
2023-04-19T04:25:15.947Z,3.55
2023-04-19T04:29:30.695Z,3.45
2023-04-19T04:36:50.480Z,3.45
2023-04-19T04:41:17.343Z,2.28
2023-04-19T04:44:56.339Z,2.45
2023-04-19T04:56:02.823Z,2.72
2023-04-19T05:05:48.707Z,2.35
2023-04-19T05:09:01.732Z,3.47
2023-04-19T05:11:54.724Z,4.05
2023-04-19T05:15:00.482Z,2.65
2023-04-19T05:25:21.432Z,2.38
2023-04-19T05:28:30.776Z,2.95
2023-04-19T05:34:39.404Z,2.88
2023-04-19T05:37:08.888Z,2.55
2023-04-19T05:39:38.834Z,2.20
2023-04-19T05:42:09.281Z,2.20
2023-04-19T05:44:39.075Z,2.45
2023-04-19T05:47:08.980Z,2.47
2023-04-19T05:49:58.500Z,2.75
2023-04-19T05:52:32.940Z,3.00
2023-04-19T05:55:03.307Z,2.70
2023-04-19T05:57:34.806Z,3.45
2023-04-19T06:00:05.191Z,1.77
2023-04-19T06:02:45.615Z,2.00
2023-04-19T06:05:16.494Z,2.20
2023-04-19T06:07:54.418Z,1.90
2023-04-19T06:10:25.848Z,2.35
2023-04-19T06:12:59.903Z,2.03
2023-04-19T06:15:30.944Z,1.88
2023-04-19T06:18:00.181Z,2.95
2023-04-19T06:20:29.428Z,2.22
2023-04-19T06:22:58.431Z,2.50
2023-04-19T06:25:27.549Z,3.67
2023-04-19T06:27:56.762Z,3.28
2023-04-19T06:30:27.506Z,10.63
2023-04-19T06:32:56.865Z,7.60
2023-04-19T06:35:26.554Z,2.92
2023-04-19T06:37:55.626Z,2.88
2023-04-19T06:40:24.955Z,3.53
2023-04-19T06:42:54.663Z,2.20
2023-04-19T06:45:24.315Z,4.20
2023-04-19T06:47:55.088Z,2.45
2023-04-19T06:50:24.372Z,2.13
2023-04-19T06:52:53.460Z,3.17
2023-04-19T06:55:22.949Z,3.08
2023-04-19T06:57:51.994Z,3.22
2023-04-19T07:00:21.827Z,1.90
2023-04-19T07:02:52.546Z,2.10
2023-04-19T07:05:23.330Z,2.20
2023-04-19T07:07:52.687Z,2.20
2023-04-19T07:10:21.639Z,2.55
2023-04-19T07:12:50.740Z,2.53
2023-04-19T07:15:20.044Z,1.98
2023-04-19T07:17:49.457Z,2.30
2023-04-19T07:20:18.831Z,1.63
2023-04-19T07:22:49.395Z,2.00
2023-04-19T07:25:18.765Z,1.90
2023-04-19T07:27:47.988Z,2.20
2023-04-19T07:30:17.318Z,2.58
2023-04-19T07:32:46.595Z,2.13
2023-04-19T07:35:15.999Z,2.40
2023-04-19T07:37:45.349Z,1.90
2023-04-19T07:40:16.407Z,2.25
2023-04-19T07:42:45.553Z,2.38
2023-04-19T07:45:14.720Z,1.80
2023-04-19T07:47:43.922Z,2.53
2023-04-19T07:50:13.664Z,1.83
2023-04-19T07:52:42.763Z,2.33
2023-04-19T07:55:12.222Z,3.55
2023-04-19T07:57:46.256Z,1.98
2023-04-19T08:00:16.550Z,2.22
2023-04-19T08:02:46.594Z,2.00
2023-04-19T08:05:17.793Z,2.35
2023-04-19T08:07:47.283Z,2.20
2023-04-19T08:10:17.894Z,1.65
2023-04-19T08:13:03.767Z,3.30
2023-04-19T08:18:07.637Z,2.00
2023-04-19T08:20:36.986Z,2.33
2023-04-19T08:23:20.629Z,2.55
2023-04-19T08:25:52.007Z,1.95
2023-04-19T08:28:22.514Z,2.50
2023-04-19T08:30:51.586Z,2.67
2023-04-19T08:33:20.829Z,2.50
2023-04-19T08:35:50.808Z,2.77
2023-04-19T08:38:20.474Z,2.20
2023-04-19T08:40:53.961Z,1.98
2023-04-19T08:43:28.900Z,2.88
2023-04-19T08:45:59.013Z,2.63
2023-04-19T08:48:30.866Z,2.33
2023-04-19T08:51:05.443Z,2.50
2023-04-19T08:53:36.891Z,3.10
2023-04-19T08:56:20.640Z,2.77
2023-04-19T08:59:07.636Z,2.50
2023-04-19T09:01:44.860Z,5.77
2023-04-19T09:04:31.589Z,3.00
2023-04-19T09:07:03.940Z,3.40
2023-04-19T09:09:40.764Z,3.33
2023-04-19T09:12:19.138Z,4.37
2023-04-19T09:15:01.249Z,3.20
2023-04-19T09:17:33.867Z,3.50
2023-04-19T09:20:04.606Z,3.10
2023-04-19T09:22:35.724Z,4.53
2023-04-19T09:27:38.994Z,2.87
2023-04-19T09:30:20.709Z,3.37
2023-04-19T09:32:57.180Z,2.87
2023-04-19T09:35:42.449Z,4.37
2023-04-19T09:38:12.039Z,8.57
2023-04-19T09:40:42.368Z,5.80
2023-04-19T09:45:48.548Z,2.53
2023-04-19T09:48:17.752Z,29.93
2023-04-19T09:51:00.192Z,5.10
2023-04-19T09:53:34.793Z,6.33
2023-04-19T09:56:06.622Z,7.67
2023-04-19T09:58:51.166Z,3.00
2023-04-19T10:01:40.482Z,3.10
2023-04-19T10:04:43.537Z,3.47
2023-04-19T10:07:29.953Z,3.17
2023-04-19T10:10:15.921Z,3.40
2023-04-19T10:13:11.483Z,3.03
2023-04-19T10:16:18.048Z,3.23
2023-04-19T10:18:55.658Z,3.50
2023-04-19T10:21:36.686Z,3.47
2023-04-19T10:24:12.493Z,3.57
2023-04-19T10:27:17.196Z,3.17
2023-04-19T10:30:14.276Z,2.57
2023-04-19T10:32:50.353Z,3.40
2023-04-19T10:35:38.384Z,4.23
2023-04-19T10:38:09.777Z,3.60
2023-04-19T10:41:06.351Z,2.73
2023-04-19T10:43:48.711Z,2.90
2023-04-19T10:46:54.792Z,2.37
2023-04-19T10:49:31.189Z,3.40
2023-04-19T10:52:03.876Z,3.10
2023-04-19T10:54:37.776Z,3.63
2023-04-19T10:57:08.398Z,3.00
2023-04-19T10:59:48.102Z,2.33
2023-04-19T11:02:32.587Z,3.33
2023-04-19T11:05:14.563Z,3.87
2023-04-19T11:08:02.737Z,3.37
2023-04-19T11:10:32.340Z,2.13
2023-04-19T11:13:01.885Z,2.97
2023-04-19T11:15:33.857Z,3.07
2023-04-19T11:18:12.920Z,3.10
2023-04-19T11:20:45.108Z,3.03
2023-04-19T11:23:25.180Z,3.10
2023-04-19T11:26:03.163Z,3.67
2023-04-19T11:28:34.988Z,3.33
2023-04-19T11:31:04.765Z,3.00
2023-04-19T11:33:35.977Z,2.90
2023-04-19T11:36:15.308Z,3.20
2023-04-19T11:38:48.634Z,2.80
2023-04-19T11:41:17.434Z,2.63
2023-04-19T11:43:46.923Z,3.03
2023-04-19T11:46:15.908Z,2.83
2023-04-19T11:48:53.264Z,3.40
2023-04-19T11:51:22.497Z,3.00
2023-04-19T11:53:52.840Z,3.40
2023-04-19T11:56:23.027Z,3.00
2023-04-19T11:58:51.927Z,3.57
2023-04-19T12:01:24.606Z,2.80
2023-04-19T12:03:57.725Z,3.70
2023-04-19T12:06:28.467Z,3.33
2023-04-19T12:08:59.008Z,3.40
2023-04-19T12:11:43.670Z,2.90
2023-04-19T12:14:13.032Z,2.63
2023-04-19T12:16:42.309Z,3.67
2023-04-19T12:19:17.417Z,3.90
2023-04-19T12:21:47.045Z,2.70
2023-04-19T12:24:18.745Z,3.10
2023-04-19T12:26:56.591Z,3.20
2023-04-19T12:29:25.653Z,3.10
2023-04-19T12:31:54.512Z,3.30
2023-04-19T12:34:23.546Z,3.97
2023-04-19T12:36:52.456Z,3.10
2023-04-19T12:39:22.801Z,4.03
2023-04-19T12:41:51.877Z,3.13
2023-04-19T12:44:20.857Z,3.50
2023-04-19T12:46:49.782Z,3.37
2023-04-19T12:49:21.039Z,4.07
2023-04-19T12:51:49.901Z,4.27
2023-04-19T12:54:18.779Z,4.00
2023-04-19T12:56:49.102Z,4.50
2023-04-19T12:59:18.415Z,5.73
2023-04-19T13:01:47.745Z,4.77
2023-04-19T13:04:17.290Z,4.70
2023-04-19T13:06:46.576Z,3.60
2023-04-19T13:09:15.733Z,4.00
2023-04-19T13:11:44.663Z,3.73
2023-04-19T13:14:15.451Z,3.47
2023-04-19T13:16:44.540Z,4.03
2023-04-19T13:19:13.482Z,3.20
2023-04-19T13:21:42.749Z,3.73
2023-04-19T13:24:12.025Z,3.33
2023-04-19T13:26:41.223Z,3.43
2023-04-19T13:29:10.065Z,3.33
2023-04-19T13:31:40.429Z,3.67
2023-04-19T13:34:09.378Z,5.10
2023-04-19T13:36:38.174Z,4.03
2023-04-19T13:39:08.394Z,4.03
2023-04-19T13:41:37.593Z,3.70
2023-04-19T13:44:06.491Z,3.10
2023-04-19T13:46:35.480Z,2.90
2023-04-19T13:49:05.698Z,3.60
2023-04-19T13:51:49.740Z,4.13
2023-04-19T13:54:19.983Z,4.07
2023-04-19T13:56:51.998Z,3.23
2023-04-19T13:59:21.802Z,3.73
2023-04-19T14:01:50.738Z,3.37
2023-04-19T14:04:22.162Z,3.63
2023-04-19T14:06:51.602Z,3.87
2023-04-19T14:09:20.447Z,3.80
2023-04-19T14:11:50.007Z,4.27
2023-04-19T14:14:19.043Z,3.33
2023-04-19T14:16:47.980Z,3.57
2023-04-19T14:19:16.842Z,3.70
2023-04-19T14:21:47.089Z,4.20
2023-04-19T14:24:16.251Z,3.77
2023-04-19T14:26:45.289Z,6.70
2023-04-19T14:29:14.296Z,4.10
2023-04-19T14:31:43.271Z,3.63
2023-04-19T14:34:12.194Z,3.90
2023-04-19T14:36:41.344Z,4.50
2023-04-19T14:39:11.532Z,3.70
2023-04-19T14:41:40.361Z,3.90
2023-04-19T14:44:09.205Z,4.13
2023-04-19T14:46:38.058Z,3.93
2023-04-19T14:49:07.409Z,4.90
2023-04-19T14:51:36.307Z,6.77
2023-04-19T14:54:05.344Z,4.07
2023-04-19T14:56:35.949Z,4.60
2023-04-19T14:59:06.708Z,5.82
2023-04-19T15:01:35.802Z,5.65
2023-04-19T15:04:04.987Z,5.57
2023-04-19T15:06:34.066Z,5.38
2023-04-19T15:09:02.930Z,6.10
2023-04-19T15:11:31.882Z,5.10
2023-04-19T15:14:02.326Z,5.50
2023-04-19T15:16:31.370Z,5.03
2023-04-19T15:19:02.097Z,6.40
2023-04-19T15:21:31.376Z,5.90
2023-04-19T15:24:00.230Z,6.35
2023-04-19T15:26:29.404Z,6.85
2023-04-19T15:28:58.655Z,6.07
2023-04-19T15:31:28.973Z,5.38
2023-04-19T15:33:57.897Z,5.97
2023-04-19T15:36:28.515Z,6.25
2023-04-19T15:38:58.018Z,7.55
2023-04-19T15:41:26.990Z,5.88
2023-04-19T15:43:56.021Z,7.95
2023-04-19T15:46:24.982Z,7.28
2023-04-19T15:48:55.223Z,7.20
2023-04-19T15:51:24.073Z,6.85
2023-04-19T15:53:52.896Z,5.95
2023-04-19T15:56:21.761Z,6.30
2023-04-19T15:58:55.909Z,7.00
2023-04-19T16:01:24.786Z,7.60
2023-04-19T16:03:55.179Z,7.72
2023-04-19T16:06:24.247Z,6.10
2023-04-19T16:08:53.054Z,5.82
2023-04-19T16:11:22.048Z,8.13
2023-04-19T16:13:50.900Z,6.93
2023-04-19T16:16:19.820Z,6.93
2023-04-19T16:18:48.721Z,7.72
2023-04-19T16:21:18.942Z,6.20
2023-04-19T16:23:48.035Z,7.45
2023-04-19T16:26:16.847Z,6.70
2023-04-19T16:28:45.709Z,7.47
2023-04-19T16:31:14.547Z,6.53
2023-04-19T16:33:43.457Z,6.15
2023-04-19T16:36:12.489Z,7.20
2023-04-19T16:38:42.640Z,6.85
2023-04-19T16:41:11.885Z,7.85
2023-04-19T16:43:40.824Z,9.57
2023-04-19T16:46:09.924Z,10.10
2023-04-19T16:48:38.763Z,9.05
2023-04-19T16:51:07.728Z,8.63
2023-04-19T16:53:36.625Z,10.07
2023-04-19T16:56:07.314Z,8.57
2023-04-19T16:58:36.109Z,9.43
2023-04-19T17:01:05.022Z,7.43
2023-04-19T17:03:35.024Z,9.05
2023-04-19T17:06:04.042Z,7.30
2023-04-19T17:08:32.848Z,8.05
2023-04-19T17:11:01.721Z,7.25
2023-04-19T17:13:32.174Z,6.32
2023-04-19T17:16:01.090Z,7.38
2023-04-19T17:18:29.992Z,7.35
2023-04-19T17:20:58.707Z,7.55
2023-04-19T17:23:27.524Z,8.00
2023-04-19T17:25:56.347Z,7.53
2023-04-19T17:28:25.179Z,7.28
2023-04-19T17:30:55.413Z,9.25
2023-04-19T17:33:24.205Z,8.90
2023-04-19T17:35:53.335Z,7.85
2023-04-19T17:38:22.336Z,7.72
2023-04-19T17:40:51.301Z,9.02
2023-04-19T17:43:20.965Z,7.68
2023-04-19T17:45:49.867Z,7.32
2023-04-19T17:48:22.215Z,9.43
2023-04-19T17:50:51.120Z,8.23
2023-04-19T17:53:20.018Z,7.45
2023-04-19T17:55:49.023Z,7.70
2023-04-19T17:58:18.090Z,8.15
2023-04-19T18:00:47.100Z,9.23
2023-04-19T18:03:16.204Z,8.10
2023-04-19T18:05:46.582Z,9.20
2023-04-19T18:08:15.449Z,8.55
2023-04-19T18:10:44.327Z,8.88
2023-04-19T18:13:13.257Z,9.95
2023-04-19T18:15:42.326Z,8.90
2023-04-19T18:18:11.289Z,9.40
2023-04-19T18:20:40.254Z,9.68
2023-04-19T18:23:10.626Z,10.60
2023-04-19T18:25:39.703Z,10.23
2023-04-19T18:28:08.563Z,9.40
2023-04-19T18:30:37.467Z,8.82
2023-04-19T18:33:06.639Z,11.15
2023-04-19T18:35:36.669Z,10.52
2023-04-19T18:38:05.549Z,9.18
2023-04-19T18:40:35.815Z,10.32
2023-04-19T18:43:04.967Z,10.63
2023-04-19T18:45:33.921Z,10.23
2023-04-19T18:48:02.973Z,10.73
2023-04-19T18:50:32.099Z,10.70
2023-04-19T18:53:01.242Z,12.07
2023-04-19T18:55:31.211Z,12.65
2023-04-19T18:58:01.686Z,12.65
2023-04-19T19:00:30.842Z,13.00
2023-04-19T19:03:00.945Z,14.40
2023-04-19T19:05:32.047Z,13.10
2023-04-19T19:08:01.288Z,14.73
2023-04-19T19:13:03.701Z,14.65
2023-04-19T19:15:34.091Z,15.80
2023-04-19T19:18:03.303Z,16.02
2023-04-19T19:20:32.258Z,16.45
2023-04-19T19:23:01.304Z,16.83
2023-04-19T19:25:30.249Z,18.10
2023-04-19T19:28:10.038Z,17.98
2023-04-19T19:30:43.142Z,19.80
2023-04-19T19:33:12.402Z,17.92
2023-04-19T19:35:41.423Z,16.85
2023-04-19T19:38:10.732Z,18.77
2023-04-19T19:41:04.215Z,18.80
2023-04-19T19:43:30.064Z,19.73
2023-04-19T19:46:03.701Z,18.73
2023-04-19T19:48:38.493Z,19.90
2023-04-19T19:51:41.590Z,21.48
2023-04-19T19:53:59.434Z,17.83
2023-04-19T19:56:28.511Z,18.25
2023-04-19T19:58:58.857Z,20.52
2023-04-19T20:01:28.172Z,20.95
2023-04-19T20:03:57.548Z,18.70
2023-04-19T20:07:21.941Z,19.92
2023-04-19T20:09:15.835Z,21.73
2023-04-19T20:11:45.007Z,21.20
2023-04-19T20:14:15.337Z,21.83
2023-04-19T20:16:49.958Z,19.75
2023-04-19T20:19:19.497Z,20.92
2023-04-19T20:21:48.676Z,22.08
2023-04-19T20:24:18.413Z,18.70
2023-04-19T20:26:47.401Z,23.45
2023-04-19T20:29:17.987Z,20.63
2023-04-19T20:31:47.080Z,18.83
2023-04-19T20:34:16.267Z,20.15
2023-04-19T20:36:46.863Z,20.55
2023-04-19T20:39:16.512Z,18.52
2023-04-19T20:41:48.006Z,17.65
2023-04-19T20:44:20.231Z,17.75
2023-04-19T20:46:50.461Z,18.17
2023-04-19T20:49:19.392Z,17.83
2023-04-19T20:51:49.948Z,18.85
2023-04-19T20:54:19.039Z,17.50
2023-04-19T20:56:49.395Z,18.13
2023-04-19T20:59:19.656Z,17.63
2023-04-19T21:01:48.592Z,17.02
2023-04-19T21:04:17.635Z,17.35
2023-04-19T21:06:47.557Z,18.92
2023-04-19T21:09:16.644Z,16.80
2023-04-19T21:11:45.696Z,16.08
2023-04-19T21:14:14.601Z,16.90
2023-04-19T21:16:44.881Z,18.45
2023-04-19T21:19:13.827Z,16.25
2023-04-19T21:21:42.748Z,15.15
2023-04-19T21:24:11.732Z,16.80
2023-04-19T21:26:45.923Z,17.02
2023-04-19T21:29:15.357Z,15.13
2023-04-19T21:31:46.052Z,18.23
2023-04-19T21:34:15.138Z,16.45
2023-04-19T21:36:44.127Z,16.10
2023-04-19T21:39:13.163Z,16.80
2023-04-19T21:41:43.022Z,15.13
2023-04-19T21:44:11.904Z,16.38
2023-04-19T21:46:40.999Z,16.92
2023-04-19T21:49:11.261Z,15.52
2023-04-19T21:51:40.245Z,17.50
2023-04-19T21:54:09.144Z,15.07
2023-04-19T21:56:39.366Z,19.80
2023-04-19T22:02:10.897Z,14.77
2023-04-19T22:04:41.703Z,15.95
2023-04-19T22:07:11.562Z,16.02
2023-04-19T22:09:40.649Z,15.18
2023-04-19T22:12:11.660Z,15.57
2023-04-19T22:14:40.823Z,15.65
2023-04-19T22:17:10.315Z,15.57
2023-04-19T22:19:40.712Z,15.05
2023-04-19T22:22:10.959Z,14.10
2023-04-19T22:24:57.020Z,14.05
2023-04-19T22:27:28.728Z,14.02
2023-04-19T22:29:57.729Z,13.15
2023-04-19T22:32:26.637Z,13.90
2023-04-19T22:34:58.125Z,13.63
2023-04-19T22:37:30.790Z,11.65
2023-04-19T22:40:00.698Z,11.57
2023-04-19T22:42:29.613Z,11.90
2023-04-19T22:44:58.557Z,12.05
2023-04-19T22:47:29.664Z,11.95
2023-04-19T22:50:00.034Z,13.10
2023-04-19T22:52:28.997Z,10.95
2023-04-19T22:54:57.969Z,10.50
2023-04-19T22:57:27.084Z,9.40
2023-04-19T22:59:56.284Z,10.63
2023-04-19T23:02:25.181Z,9.98
2023-04-19T23:04:54.521Z,10.77
2023-04-19T23:07:24.832Z,10.55
2023-04-19T23:09:54.918Z,10.05
2023-04-19T23:12:24.179Z,9.82
2023-04-19T23:14:53.154Z,9.90
2023-04-19T23:17:22.144Z,10.02
2023-04-19T23:19:51.393Z,9.30
2023-04-19T23:22:22.160Z,8.73
2023-04-19T23:24:52.859Z,9.52
2023-04-19T23:27:22.256Z,8.15
2023-04-19T23:29:51.189Z,8.75
2023-04-19T23:32:32.325Z,10.25
2023-04-19T23:35:01.652Z,10.18
2023-04-19T23:37:30.832Z,9.20
2023-04-19T23:40:01.684Z,9.10
2023-04-19T23:42:30.612Z,9.90
2023-04-19T23:44:59.683Z,9.07
2023-04-19T23:47:28.692Z,9.02
2023-04-19T23:49:57.570Z,10.10
2023-04-19T23:52:27.617Z,8.90
2023-04-19T23:54:56.628Z,9.32
2023-04-19T23:57:27.100Z,9.10
2023-04-19T23:59:59.097Z,8.70
